sensor_id;sensor_type;location;lat;lon;timestamp;P1;durP1;ratioP1;P2;durP2;ratioP2
6127;SDS011;7073;42.672;23.256;2022-10-16T00:00:35;17.27;;;9.40;;
6127;SDS011;7073;42.672;23.256;2022-10-16T00:03:04;15.60;;;8.60;;
6127;SDS011;7073;42.672;23.256;2022-10-16T00:05:32;14.90;;;8.10;;
6127;SDS011;7073;42.672;23.256;2022-10-16T00:08:00;16.20;;;8.03;;
6127;SDS011;7073;42.672;23.256;2022-10-16T00:10:33;15.37;;;9.57;;
6127;SDS011;7073;42.672;23.256;2022-10-16T00:13:00;17.23;;;8.57;;
6127;SDS011;7073;42.672;23.256;2022-10-16T00:15:27;14.07;;;7.80;;
6127;SDS011;7073;42.672;23.256;2022-10-16T00:17:58;15.70;;;9.00;;
6127;SDS011;7073;42.672;23.256;2022-10-16T00:20:25;14.00;;;7.73;;
6127;SDS011;7073;42.672;23.256;2022-10-16T00:22:53;15.13;;;8.50;;
6127;SDS011;7073;42.672;23.256;2022-10-16T00:25:26;12.40;;;8.10;;
6127;SDS011;7073;42.672;23.256;2022-10-16T00:28:01;12.27;;;7.20;;
6127;SDS011;7073;42.672;23.256;2022-10-16T00:30:37;14.57;;;8.27;;
6127;SDS011;7073;42.672;23.256;2022-10-16T00:33:05;21.53;;;8.73;;
6127;SDS011;7073;42.672;23.256;2022-10-16T00:35:32;18.33;;;9.47;;
6127;SDS011;7073;42.672;23.256;2022-10-16T00:37:58;13.60;;;8.20;;
6127;SDS011;7073;42.672;23.256;2022-10-16T00:40:25;11.87;;;7.50;;
6127;SDS011;7073;42.672;23.256;2022-10-16T00:42:53;12.57;;;7.73;;
6127;SDS011;7073;42.672;23.256;2022-10-16T00:45:23;15.17;;;7.73;;
6127;SDS011;7073;42.672;23.256;2022-10-16T00:47:51;16.63;;;8.33;;
6127;SDS011;7073;42.672;23.256;2022-10-16T00:50:22;16.83;;;8.70;;
6127;SDS011;7073;42.672;23.256;2022-10-16T00:52:54;21.60;;;7.90;;
6127;SDS011;7073;42.672;23.256;2022-10-16T00:55:23;12.57;;;7.13;;
6127;SDS011;7073;42.672;23.256;2022-10-16T00:57:55;13.53;;;8.30;;
6127;SDS011;7073;42.672;23.256;2022-10-16T01:00:30;13.80;;;8.63;;
6127;SDS011;7073;42.672;23.256;2022-10-16T01:02:57;16.23;;;8.67;;
6127;SDS011;7073;42.672;23.256;2022-10-16T01:05:26;15.87;;;7.63;;
6127;SDS011;7073;42.672;23.256;2022-10-16T01:08:01;15.40;;;8.57;;
6127;SDS011;7073;42.672;23.256;2022-10-16T01:10:39;11.47;;;8.10;;
6127;SDS011;7073;42.672;23.256;2022-10-16T01:13:11;12.30;;;7.33;;
6127;SDS011;7073;42.672;23.256;2022-10-16T01:31:44;16.27;;;8.40;;
6127;SDS011;7073;42.672;23.256;2022-10-16T01:34:18;14.87;;;8.83;;
6127;SDS011;7073;42.672;23.256;2022-10-16T01:36:52;13.87;;;7.30;;
6127;SDS011;7073;42.672;23.256;2022-10-16T01:39:38;15.20;;;8.23;;
6127;SDS011;7073;42.672;23.256;2022-10-16T01:42:28;13.60;;;8.60;;
6127;SDS011;7073;42.672;23.256;2022-10-16T01:45:00;17.00;;;7.90;;
6127;SDS011;7073;42.672;23.256;2022-10-16T01:47:31;15.83;;;8.70;;
6127;SDS011;7073;42.672;23.256;2022-10-16T01:49:59;16.47;;;9.83;;
6127;SDS011;7073;42.672;23.256;2022-10-16T01:52:31;14.27;;;8.37;;
6127;SDS011;7073;42.672;23.256;2022-10-16T01:55:00;12.60;;;8.17;;
6127;SDS011;7073;42.672;23.256;2022-10-16T01:57:32;12.60;;;7.83;;
6127;SDS011;7073;42.672;23.256;2022-10-16T02:00:05;17.83;;;8.40;;
6127;SDS011;7073;42.672;23.256;2022-10-16T02:02:36;13.47;;;8.50;;
6127;SDS011;7073;42.672;23.256;2022-10-16T02:05:08;13.77;;;9.03;;
6127;SDS011;7073;42.672;23.256;2022-10-16T02:07:38;15.27;;;8.00;;
6127;SDS011;7073;42.672;23.256;2022-10-16T02:10:07;16.33;;;8.37;;
6127;SDS011;7073;42.672;23.256;2022-10-16T02:12:36;17.47;;;9.20;;
6127;SDS011;7073;42.672;23.256;2022-10-16T02:15:10;14.40;;;7.70;;
6127;SDS011;7073;42.672;23.256;2022-10-16T02:17:39;17.53;;;8.80;;
6127;SDS011;7073;42.672;23.256;2022-10-16T02:20:13;14.87;;;8.63;;
6127;SDS011;7073;42.672;23.256;2022-10-16T02:22:45;15.47;;;8.80;;
6127;SDS011;7073;42.672;23.256;2022-10-16T02:25:17;12.33;;;8.40;;
6127;SDS011;7073;42.672;23.256;2022-10-16T02:27:54;13.63;;;8.63;;
6127;SDS011;7073;42.672;23.256;2022-10-16T02:37:04;16.53;;;8.23;;
6127;SDS011;7073;42.672;23.256;2022-10-16T02:39:33;15.60;;;8.23;;
6127;SDS011;7073;42.672;23.256;2022-10-16T02:42:02;18.57;;;8.60;;
6127;SDS011;7073;42.672;23.256;2022-10-16T02:44:35;13.57;;;8.40;;
6127;SDS011;7073;42.672;23.256;2022-10-16T02:50:59;15.73;;;8.43;;
6127;SDS011;7073;42.672;23.256;2022-10-16T02:53:28;14.60;;;8.60;;
6127;SDS011;7073;42.672;23.256;2022-10-16T02:55:55;15.57;;;9.17;;
6127;SDS011;7073;42.672;23.256;2022-10-16T02:58:22;14.00;;;8.73;;
6127;SDS011;7073;42.672;23.256;2022-10-16T03:00:49;18.30;;;9.20;;
6127;SDS011;7073;42.672;23.256;2022-10-16T03:03:16;17.90;;;9.10;;
6127;SDS011;7073;42.672;23.256;2022-10-16T03:05:48;15.20;;;9.20;;
6127;SDS011;7073;42.672;23.256;2022-10-16T03:08:16;14.67;;;8.70;;
6127;SDS011;7073;42.672;23.256;2022-10-16T03:10:50;14.40;;;8.83;;
6127;SDS011;7073;42.672;23.256;2022-10-16T03:13:17;15.17;;;9.90;;
6127;SDS011;7073;42.672;23.256;2022-10-16T03:15:45;15.80;;;9.07;;
6127;SDS011;7073;42.672;23.256;2022-10-16T03:18:12;16.30;;;8.97;;
6127;SDS011;7073;42.672;23.256;2022-10-16T03:20:41;13.27;;;8.50;;
6127;SDS011;7073;42.672;23.256;2022-10-16T03:23:14;17.80;;;10.17;;
6127;SDS011;7073;42.672;23.256;2022-10-16T03:25:41;17.40;;;10.03;;
6127;SDS011;7073;42.672;23.256;2022-10-16T03:28:10;17.97;;;10.17;;
6127;SDS011;7073;42.672;23.256;2022-10-16T03:30:37;14.00;;;9.30;;
6127;SDS011;7073;42.672;23.256;2022-10-16T03:33:04;13.00;;;9.33;;
6127;SDS011;7073;42.672;23.256;2022-10-16T03:35:32;14.80;;;9.03;;
6127;SDS011;7073;42.672;23.256;2022-10-16T03:37:59;16.00;;;10.30;;
6127;SDS011;7073;42.672;23.256;2022-10-16T03:40:27;13.77;;;8.30;;
6127;SDS011;7073;42.672;23.256;2022-10-16T03:42:57;15.90;;;9.10;;
6127;SDS011;7073;42.672;23.256;2022-10-16T03:45:25;13.83;;;8.47;;
6127;SDS011;7073;42.672;23.256;2022-10-16T03:47:52;20.20;;;9.50;;
6127;SDS011;7073;42.672;23.256;2022-10-16T03:50:19;16.67;;;9.20;;
6127;SDS011;7073;42.672;23.256;2022-10-16T03:52:47;13.73;;;8.13;;
6127;SDS011;7073;42.672;23.256;2022-10-16T03:59:03;12.83;;;8.00;;
6127;SDS011;7073;42.672;23.256;2022-10-16T04:01:32;19.33;;;10.63;;
6127;SDS011;7073;42.672;23.256;2022-10-16T04:04:03;16.17;;;9.37;;
6127;SDS011;7073;42.672;23.256;2022-10-16T04:06:47;15.13;;;8.30;;
6127;SDS011;7073;42.672;23.256;2022-10-16T04:09:30;16.57;;;9.27;;
6127;SDS011;7073;42.672;23.256;2022-10-16T04:11:58;15.00;;;9.80;;
6127;SDS011;7073;42.672;23.256;2022-10-16T04:14:39;17.80;;;10.20;;
6127;SDS011;7073;42.672;23.256;2022-10-16T04:17:11;15.70;;;9.03;;
6127;SDS011;7073;42.672;23.256;2022-10-16T04:19:38;15.27;;;9.00;;
6127;SDS011;7073;42.672;23.256;2022-10-16T04:22:07;15.00;;;9.40;;
6127;SDS011;7073;42.672;23.256;2022-10-16T04:24:48;33.77;;;17.17;;
6127;SDS011;7073;42.672;23.256;2022-10-16T04:28:03;30.33;;;15.97;;
6127;SDS011;7073;42.672;23.256;2022-10-16T04:30:37;25.10;;;10.97;;
6127;SDS011;7073;42.672;23.256;2022-10-16T04:33:40;25.93;;;14.00;;
6127;SDS011;7073;42.672;23.256;2022-10-16T04:36:09;31.93;;;15.60;;
6127;SDS011;7073;42.672;23.256;2022-10-16T04:38:36;20.57;;;14.30;;
6127;SDS011;7073;42.672;23.256;2022-10-16T04:41:04;20.30;;;12.03;;
6127;SDS011;7073;42.672;23.256;2022-10-16T04:43:32;22.83;;;12.40;;
6127;SDS011;7073;42.672;23.256;2022-10-16T04:45:59;15.00;;;10.53;;
6127;SDS011;7073;42.672;23.256;2022-10-16T04:48:26;19.03;;;11.97;;
6127;SDS011;7073;42.672;23.256;2022-10-16T04:50:55;19.17;;;11.30;;
6127;SDS011;7073;42.672;23.256;2022-10-16T04:53:22;17.90;;;11.00;;
6127;SDS011;7073;42.672;23.256;2022-10-16T04:55:49;19.77;;;14.13;;
6127;SDS011;7073;42.672;23.256;2022-10-16T04:58:16;21.17;;;12.00;;
6127;SDS011;7073;42.672;23.256;2022-10-16T05:00:43;16.47;;;9.53;;
6127;SDS011;7073;42.672;23.256;2022-10-16T05:03:11;25.03;;;14.83;;
6127;SDS011;7073;42.672;23.256;2022-10-16T05:05:41;19.07;;;11.23;;
6127;SDS011;7073;42.672;23.256;2022-10-16T05:08:11;21.30;;;11.80;;
6127;SDS011;7073;42.672;23.256;2022-10-16T05:10:38;23.73;;;11.70;;
6127;SDS011;7073;42.672;23.256;2022-10-16T05:13:05;24.33;;;12.40;;
6127;SDS011;7073;42.672;23.256;2022-10-16T05:15:32;27.00;;;11.80;;
6127;SDS011;7073;42.672;23.256;2022-10-16T05:18:00;22.07;;;11.33;;
6127;SDS011;7073;42.672;23.256;2022-10-16T05:20:27;24.17;;;11.80;;
6127;SDS011;7073;42.672;23.256;2022-10-16T05:22:53;23.63;;;12.87;;
6127;SDS011;7073;42.672;23.256;2022-10-16T05:25:22;19.60;;;11.33;;
6127;SDS011;7073;42.672;23.256;2022-10-16T05:27:49;22.40;;;12.13;;
6127;SDS011;7073;42.672;23.256;2022-10-16T05:30:16;23.87;;;12.77;;
6127;SDS011;7073;42.672;23.256;2022-10-16T05:32:46;23.03;;;13.07;;
6127;SDS011;7073;42.672;23.256;2022-10-16T05:35:14;23.10;;;14.10;;
6127;SDS011;7073;42.672;23.256;2022-10-16T05:37:41;20.13;;;11.33;;
6127;SDS011;7073;42.672;23.256;2022-10-16T05:40:08;18.10;;;11.30;;
6127;SDS011;7073;42.672;23.256;2022-10-16T05:42:37;21.10;;;11.47;;
6127;SDS011;7073;42.672;23.256;2022-10-16T05:45:04;21.00;;;11.03;;
6127;SDS011;7073;42.672;23.256;2022-10-16T05:47:31;26.30;;;14.60;;
6127;SDS011;7073;42.672;23.256;2022-10-16T05:49:58;26.03;;;13.87;;
6127;SDS011;7073;42.672;23.256;2022-10-16T05:52:26;25.77;;;14.27;;
6127;SDS011;7073;42.672;23.256;2022-10-16T05:54:53;23.90;;;14.27;;
6127;SDS011;7073;42.672;23.256;2022-10-16T05:57:19;25.60;;;15.87;;
6127;SDS011;7073;42.672;23.256;2022-10-16T05:59:48;28.47;;;17.63;;
6127;SDS011;7073;42.672;23.256;2022-10-16T06:02:14;44.90;;;24.80;;
6127;SDS011;7073;42.672;23.256;2022-10-16T06:04:41;47.03;;;24.40;;
6127;SDS011;7073;42.672;23.256;2022-10-16T06:07:08;34.40;;;20.30;;
6127;SDS011;7073;42.672;23.256;2022-10-16T06:09:35;28.80;;;17.50;;
6127;SDS011;7073;42.672;23.256;2022-10-16T06:12:02;34.37;;;18.47;;
6127;SDS011;7073;42.672;23.256;2022-10-16T06:14:30;26.23;;;16.23;;
6127;SDS011;7073;42.672;23.256;2022-10-16T06:16:58;23.70;;;15.00;;
6127;SDS011;7073;42.672;23.256;2022-10-16T06:19:25;27.50;;;14.50;;
6127;SDS011;7073;42.672;23.256;2022-10-16T06:21:51;27.83;;;16.10;;
6127;SDS011;7073;42.672;23.256;2022-10-16T06:24:18;21.00;;;14.17;;
6127;SDS011;7073;42.672;23.256;2022-10-16T06:26:45;22.17;;;13.80;;
6127;SDS011;7073;42.672;23.256;2022-10-16T06:29:12;25.17;;;13.50;;
6127;SDS011;7073;42.672;23.256;2022-10-16T06:31:39;21.67;;;13.70;;
6127;SDS011;7073;42.672;23.256;2022-10-16T06:34:07;23.93;;;14.37;;
6127;SDS011;7073;42.672;23.256;2022-10-16T06:36:36;29.93;;;16.80;;
6127;SDS011;7073;42.672;23.256;2022-10-16T06:39:03;21.67;;;15.03;;
6127;SDS011;7073;42.672;23.256;2022-10-16T06:41:29;24.73;;;13.60;;
6127;SDS011;7073;42.672;23.256;2022-10-16T06:43:56;23.63;;;14.07;;
6127;SDS011;7073;42.672;23.256;2022-10-16T06:46:23;21.43;;;13.50;;
6127;SDS011;7073;42.672;23.256;2022-10-16T06:48:52;23.87;;;13.60;;
6127;SDS011;7073;42.672;23.256;2022-10-16T06:51:20;19.07;;;13.73;;
6127;SDS011;7073;42.672;23.256;2022-10-16T06:53:49;18.47;;;12.63;;
6127;SDS011;7073;42.672;23.256;2022-10-16T06:56:18;23.40;;;14.20;;
6127;SDS011;7073;42.672;23.256;2022-10-16T06:58:47;23.60;;;13.70;;
6127;SDS011;7073;42.672;23.256;2022-10-16T07:01:15;32.53;;;13.90;;
6127;SDS011;7073;42.672;23.256;2022-10-16T07:03:44;21.53;;;13.40;;
6127;SDS011;7073;42.672;23.256;2022-10-16T07:06:12;22.90;;;14.23;;
6127;SDS011;7073;42.672;23.256;2022-10-16T07:08:44;22.93;;;14.00;;
6127;SDS011;7073;42.672;23.256;2022-10-16T07:11:13;21.97;;;15.23;;
6127;SDS011;7073;42.672;23.256;2022-10-16T07:13:41;23.00;;;12.97;;
6127;SDS011;7073;42.672;23.256;2022-10-16T07:16:11;21.30;;;12.77;;
6127;SDS011;7073;42.672;23.256;2022-10-16T07:18:39;23.30;;;14.30;;
6127;SDS011;7073;42.672;23.256;2022-10-16T07:21:09;24.97;;;15.97;;
6127;SDS011;7073;42.672;23.256;2022-10-16T07:23:37;30.67;;;19.70;;
6127;SDS011;7073;42.672;23.256;2022-10-16T07:26:06;27.17;;;17.73;;
6127;SDS011;7073;42.672;23.256;2022-10-16T07:28:33;25.07;;;15.60;;
6127;SDS011;7073;42.672;23.256;2022-10-16T07:31:00;20.93;;;15.53;;
6127;SDS011;7073;42.672;23.256;2022-10-16T07:33:28;28.60;;;16.63;;
6127;SDS011;7073;42.672;23.256;2022-10-16T07:35:55;25.90;;;16.50;;
6127;SDS011;7073;42.672;23.256;2022-10-16T07:38:22;26.40;;;15.57;;
6127;SDS011;7073;42.672;23.256;2022-10-16T07:40:55;23.53;;;15.17;;
6127;SDS011;7073;42.672;23.256;2022-10-16T07:43:24;27.73;;;15.20;;
6127;SDS011;7073;42.672;23.256;2022-10-16T07:45:51;21.63;;;13.80;;
6127;SDS011;7073;42.672;23.256;2022-10-16T07:48:18;18.37;;;13.73;;
6127;SDS011;7073;42.672;23.256;2022-10-16T07:50:46;20.33;;;14.20;;
6127;SDS011;7073;42.672;23.256;2022-10-16T07:53:13;23.67;;;13.00;;
6127;SDS011;7073;42.672;23.256;2022-10-16T07:55:40;15.87;;;13.20;;
6127;SDS011;7073;42.672;23.256;2022-10-16T07:58:07;19.93;;;13.30;;
6127;SDS011;7073;42.672;23.256;2022-10-16T08:00:35;18.53;;;12.80;;
6127;SDS011;7073;42.672;23.256;2022-10-16T08:03:02;19.27;;;13.63;;
6127;SDS011;7073;42.672;23.256;2022-10-16T08:05:30;16.70;;;11.13;;
6127;SDS011;7073;42.672;23.256;2022-10-16T08:07:58;27.70;;;12.10;;
6127;SDS011;7073;42.672;23.256;2022-10-16T08:10:25;15.73;;;12.60;;
6127;SDS011;7073;42.672;23.256;2022-10-16T08:12:53;23.17;;;12.53;;
6127;SDS011;7073;42.672;23.256;2022-10-16T08:15:20;22.20;;;13.00;;
6127;SDS011;7073;42.672;23.256;2022-10-16T08:17:55;17.07;;;12.23;;
6127;SDS011;7073;42.672;23.256;2022-10-16T08:20:23;23.40;;;13.00;;
6127;SDS011;7073;42.672;23.256;2022-10-16T08:22:50;23.07;;;14.03;;
6127;SDS011;7073;42.672;23.256;2022-10-16T08:25:17;17.80;;;12.37;;
6127;SDS011;7073;42.672;23.256;2022-10-16T08:27:44;17.23;;;13.10;;
6127;SDS011;7073;42.672;23.256;2022-10-16T08:30:11;19.37;;;11.23;;
6127;SDS011;7073;42.672;23.256;2022-10-16T08:32:38;19.00;;;12.40;;
6127;SDS011;7073;42.672;23.256;2022-10-16T08:35:08;19.87;;;12.10;;
6127;SDS011;7073;42.672;23.256;2022-10-16T08:37:35;18.03;;;10.90;;
6127;SDS011;7073;42.672;23.256;2022-10-16T08:40:03;15.70;;;10.37;;
6127;SDS011;7073;42.672;23.256;2022-10-16T08:42:35;15.20;;;8.90;;
6127;SDS011;7073;42.672;23.256;2022-10-16T08:45:21;14.87;;;8.97;;
6127;SDS011;7073;42.672;23.256;2022-10-16T08:47:58;11.30;;;8.57;;
6127;SDS011;7073;42.672;23.256;2022-10-16T08:50:35;13.57;;;8.60;;
6127;SDS011;7073;42.672;23.256;2022-10-16T08:53:04;10.90;;;8.20;;
6127;SDS011;7073;42.672;23.256;2022-10-16T08:55:33;10.07;;;7.80;;
6127;SDS011;7073;42.672;23.256;2022-10-16T08:58:10;11.50;;;7.10;;
6127;SDS011;7073;42.672;23.256;2022-10-16T09:00:39;12.03;;;7.37;;
6127;SDS011;7073;42.672;23.256;2022-10-16T09:03:09;9.27;;;7.07;;
6127;SDS011;7073;42.672;23.256;2022-10-16T09:05:51;10.40;;;6.77;;
6127;SDS011;7073;42.672;23.256;2022-10-16T09:08:26;7.80;;;5.97;;
6127;SDS011;7073;42.672;23.256;2022-10-16T09:11:03;7.57;;;6.70;;
6127;SDS011;7073;42.672;23.256;2022-10-16T09:13:36;9.00;;;6.20;;
6127;SDS011;7073;42.672;23.256;2022-10-16T09:16:15;7.40;;;5.00;;
6127;SDS011;7073;42.672;23.256;2022-10-16T09:18:48;6.13;;;4.40;;
6127;SDS011;7073;42.672;23.256;2022-10-16T09:21:23;6.10;;;4.80;;
6127;SDS011;7073;42.672;23.256;2022-10-16T09:23:52;8.43;;;5.03;;
6127;SDS011;7073;42.672;23.256;2022-10-16T09:26:20;9.13;;;5.67;;
6127;SDS011;7073;42.672;23.256;2022-10-16T09:28:47;7.07;;;4.77;;
6127;SDS011;7073;42.672;23.256;2022-10-16T09:31:17;8.03;;;5.03;;
6127;SDS011;7073;42.672;23.256;2022-10-16T09:33:47;5.97;;;5.37;;
6127;SDS011;7073;42.672;23.256;2022-10-16T09:36:16;7.20;;;4.87;;
6127;SDS011;7073;42.672;23.256;2022-10-16T09:38:45;8.43;;;5.07;;
6127;SDS011;7073;42.672;23.256;2022-10-16T09:41:14;6.23;;;4.60;;
6127;SDS011;7073;42.672;23.256;2022-10-16T09:43:46;8.87;;;4.80;;
6127;SDS011;7073;42.672;23.256;2022-10-16T09:46:27;6.13;;;4.80;;
6127;SDS011;7073;42.672;23.256;2022-10-16T09:48:56;10.43;;;6.03;;
6127;SDS011;7073;42.672;23.256;2022-10-16T09:51:26;6.07;;;4.13;;
6127;SDS011;7073;42.672;23.256;2022-10-16T09:53:56;6.17;;;4.90;;
6127;SDS011;7073;42.672;23.256;2022-10-16T09:56:25;9.60;;;5.37;;
6127;SDS011;7073;42.672;23.256;2022-10-16T09:58:53;7.20;;;5.33;;
6127;SDS011;7073;42.672;23.256;2022-10-16T10:01:22;6.63;;;3.93;;
6127;SDS011;7073;42.672;23.256;2022-10-16T10:03:55;7.00;;;4.43;;
6127;SDS011;7073;42.672;23.256;2022-10-16T10:06:26;10.50;;;7.10;;
6127;SDS011;7073;42.672;23.256;2022-10-16T10:08:58;6.90;;;5.10;;
6127;SDS011;7073;42.672;23.256;2022-10-16T10:11:37;11.33;;;6.33;;
6127;SDS011;7073;42.672;23.256;2022-10-16T10:14:13;8.57;;;5.03;;
6127;SDS011;7073;42.672;23.256;2022-10-16T10:16:44;8.33;;;5.70;;
6127;SDS011;7073;42.672;23.256;2022-10-16T10:19:13;5.70;;;5.10;;
6127;SDS011;7073;42.672;23.256;2022-10-16T10:21:47;9.20;;;4.40;;
6127;SDS011;7073;42.672;23.256;2022-10-16T10:24:17;5.60;;;4.40;;
6127;SDS011;7073;42.672;23.256;2022-10-16T10:26:50;6.67;;;4.93;;
6127;SDS011;7073;42.672;23.256;2022-10-16T10:29:32;5.80;;;5.20;;
6127;SDS011;7073;42.672;23.256;2022-10-16T10:32:10;4.40;;;4.00;;
6127;SDS011;7073;42.672;23.256;2022-10-16T10:34:49;6.87;;;5.57;;
6127;SDS011;7073;42.672;23.256;2022-10-16T10:37:30;7.97;;;4.47;;
6127;SDS011;7073;42.672;23.256;2022-10-16T10:40:15;7.80;;;4.20;;
6127;SDS011;7073;42.672;23.256;2022-10-16T10:42:55;6.43;;;4.80;;
6127;SDS011;7073;42.672;23.256;2022-10-16T10:45:34;6.80;;;4.53;;
6127;SDS011;7073;42.672;23.256;2022-10-16T10:51:18;7.93;;;4.57;;
6127;SDS011;7073;42.672;23.256;2022-10-16T10:53:54;4.37;;;3.97;;
6127;SDS011;7073;42.672;23.256;2022-10-16T10:56:41;6.07;;;4.37;;
6127;SDS011;7073;42.672;23.256;2022-10-16T10:59:24;4.97;;;3.80;;
6127;SDS011;7073;42.672;23.256;2022-10-16T11:02:04;6.50;;;3.53;;
6127;SDS011;7073;42.672;23.256;2022-10-16T11:04:52;4.50;;;4.00;;
6127;SDS011;7073;42.672;23.256;2022-10-16T11:07:48;5.70;;;4.63;;
6127;SDS011;7073;42.672;23.256;2022-10-16T11:10:20;4.77;;;4.27;;
6127;SDS011;7073;42.672;23.256;2022-10-16T11:12:51;4.53;;;4.10;;
6127;SDS011;7073;42.672;23.256;2022-10-16T11:15:22;6.47;;;5.27;;
6127;SDS011;7073;42.672;23.256;2022-10-16T11:17:53;4.10;;;3.70;;
6127;SDS011;7073;42.672;23.256;2022-10-16T11:20:27;6.27;;;4.07;;
6127;SDS011;7073;42.672;23.256;2022-10-16T11:22:58;4.83;;;3.60;;
6127;SDS011;7073;42.672;23.256;2022-10-16T11:25:32;4.53;;;4.13;;
6127;SDS011;7073;42.672;23.256;2022-10-16T11:28:02;5.73;;;4.30;;
6127;SDS011;7073;42.672;23.256;2022-10-16T11:30:39;4.97;;;4.13;;
6127;SDS011;7073;42.672;23.256;2022-10-16T11:33:15;6.50;;;4.30;;
6127;SDS011;7073;42.672;23.256;2022-10-16T11:35:53;4.23;;;3.80;;
6127;SDS011;7073;42.672;23.256;2022-10-16T11:38:25;6.30;;;3.60;;
6127;SDS011;7073;42.672;23.256;2022-10-16T11:40:58;4.50;;;4.07;;
6127;SDS011;7073;42.672;23.256;2022-10-16T11:43:31;11.67;;;5.00;;
6127;SDS011;7073;42.672;23.256;2022-10-16T11:46:03;8.03;;;4.00;;
6127;SDS011;7073;42.672;23.256;2022-10-16T11:48:35;4.03;;;3.70;;
6127;SDS011;7073;42.672;23.256;2022-10-16T11:51:09;7.03;;;4.20;;
6127;SDS011;7073;42.672;23.256;2022-10-16T11:53:43;3.93;;;3.27;;
6127;SDS011;7073;42.672;23.256;2022-10-16T11:56:12;4.00;;;3.70;;
6127;SDS011;7073;42.672;23.256;2022-10-16T11:58:44;4.67;;;3.90;;
6127;SDS011;7073;42.672;23.256;2022-10-16T12:01:21;4.73;;;4.03;;
6127;SDS011;7073;42.672;23.256;2022-10-16T12:03:56;6.17;;;4.10;;
6127;SDS011;7073;42.672;23.256;2022-10-16T12:06:31;6.70;;;4.50;;
6127;SDS011;7073;42.672;23.256;2022-10-16T12:09:02;4.93;;;3.60;;
6127;SDS011;7073;42.672;23.256;2022-10-16T12:11:34;5.40;;;4.57;;
6127;SDS011;7073;42.672;23.256;2022-10-16T12:14:05;6.90;;;4.13;;
6127;SDS011;7073;42.672;23.256;2022-10-16T12:16:50;6.33;;;3.90;;
6127;SDS011;7073;42.672;23.256;2022-10-16T12:19:19;4.13;;;3.80;;
6127;SDS011;7073;42.672;23.256;2022-10-16T12:21:47;3.97;;;3.57;;
6127;SDS011;7073;42.672;23.256;2022-10-16T12:24:20;3.90;;;3.60;;
6127;SDS011;7073;42.672;23.256;2022-10-16T12:26:52;4.57;;;3.63;;
6127;SDS011;7073;42.672;23.256;2022-10-16T12:29:23;4.77;;;4.23;;
6127;SDS011;7073;42.672;23.256;2022-10-16T12:31:57;3.83;;;3.53;;
6127;SDS011;7073;42.672;23.256;2022-10-16T12:34:26;4.60;;;4.20;;
6127;SDS011;7073;42.672;23.256;2022-10-16T12:36:55;4.17;;;3.63;;
6127;SDS011;7073;42.672;23.256;2022-10-16T12:39:35;7.37;;;4.97;;
6127;SDS011;7073;42.672;23.256;2022-10-16T12:42:03;8.13;;;4.80;;
6127;SDS011;7073;42.672;23.256;2022-10-16T12:44:33;4.00;;;3.60;;
6127;SDS011;7073;42.672;23.256;2022-10-16T12:47:01;6.20;;;4.77;;
6127;SDS011;7073;42.672;23.256;2022-10-16T12:49:34;5.40;;;3.63;;
6127;SDS011;7073;42.672;23.256;2022-10-16T12:52:04;4.67;;;3.33;;
6127;SDS011;7073;42.672;23.256;2022-10-16T12:54:50;11.67;;;6.07;;
6127;SDS011;7073;42.672;23.256;2022-10-16T12:57:26;4.77;;;4.10;;
6127;SDS011;7073;42.672;23.256;2022-10-16T13:00:04;4.80;;;4.17;;
6127;SDS011;7073;42.672;23.256;2022-10-16T13:02:47;6.90;;;4.67;;
6127;SDS011;7073;42.672;23.256;2022-10-16T13:05:26;5.60;;;3.90;;
6127;SDS011;7073;42.672;23.256;2022-10-16T13:08:13;3.70;;;3.40;;
6127;SDS011;7073;42.672;23.256;2022-10-16T13:10:53;4.03;;;3.63;;
6127;SDS011;7073;42.672;23.256;2022-10-16T13:13:37;5.07;;;3.83;;
6127;SDS011;7073;42.672;23.256;2022-10-16T13:16:21;4.87;;;3.70;;
6127;SDS011;7073;42.672;23.256;2022-10-16T13:18:57;4.20;;;3.80;;
6127;SDS011;7073;42.672;23.256;2022-10-16T13:21:33;4.90;;;3.50;;
6127;SDS011;7073;42.672;23.256;2022-10-16T13:24:11;3.60;;;3.30;;
6127;SDS011;7073;42.672;23.256;2022-10-16T13:26:50;8.30;;;5.67;;
6127;SDS011;7073;42.672;23.256;2022-10-16T13:29:22;6.93;;;3.90;;
6127;SDS011;7073;42.672;23.256;2022-10-16T13:31:50;5.87;;;4.03;;
6127;SDS011;7073;42.672;23.256;2022-10-16T13:34:18;5.40;;;4.10;;
6127;SDS011;7073;42.672;23.256;2022-10-16T13:36:48;6.53;;;4.40;;
6127;SDS011;7073;42.672;23.256;2022-10-16T13:39:20;5.83;;;4.57;;
6127;SDS011;7073;42.672;23.256;2022-10-16T13:41:57;3.93;;;3.63;;
6127;SDS011;7073;42.672;23.256;2022-10-16T13:44:28;9.77;;;3.40;;
6127;SDS011;7073;42.672;23.256;2022-10-16T13:47:03;4.60;;;3.60;;
6127;SDS011;7073;42.672;23.256;2022-10-16T13:49:29;4.17;;;3.67;;
6127;SDS011;7073;42.672;23.256;2022-10-16T13:51:57;5.43;;;3.70;;
6127;SDS011;7073;42.672;23.256;2022-10-16T13:54:25;4.43;;;3.53;;
6127;SDS011;7073;42.672;23.256;2022-10-16T13:56:54;5.30;;;3.90;;
6127;SDS011;7073;42.672;23.256;2022-10-16T13:59:24;5.17;;;3.83;;
6127;SDS011;7073;42.672;23.256;2022-10-16T14:01:53;7.13;;;4.60;;
6127;SDS011;7073;42.672;23.256;2022-10-16T14:04:24;6.87;;;3.70;;
6127;SDS011;7073;42.672;23.256;2022-10-16T14:06:54;4.70;;;3.00;;
6127;SDS011;7073;42.672;23.256;2022-10-16T14:09:22;3.70;;;3.40;;
6127;SDS011;7073;42.672;23.256;2022-10-16T14:11:52;3.50;;;3.20;;
6127;SDS011;7073;42.672;23.256;2022-10-16T14:14:22;5.90;;;3.90;;
6127;SDS011;7073;42.672;23.256;2022-10-16T14:16:50;7.10;;;5.07;;
6127;SDS011;7073;42.672;23.256;2022-10-16T14:22:11;8.80;;;4.00;;
6127;SDS011;7073;42.672;23.256;2022-10-16T14:24:50;4.70;;;3.80;;
6127;SDS011;7073;42.672;23.256;2022-10-16T14:27:27;6.50;;;4.03;;
6127;SDS011;7073;42.672;23.256;2022-10-16T14:32:54;8.13;;;5.93;;
6127;SDS011;7073;42.672;23.256;2022-10-16T14:35:28;4.63;;;3.50;;
6127;SDS011;7073;42.672;23.256;2022-10-16T14:37:58;4.47;;;3.57;;
6127;SDS011;7073;42.672;23.256;2022-10-16T14:40:26;4.50;;;3.50;;
6127;SDS011;7073;42.672;23.256;2022-10-16T14:42:54;7.63;;;3.40;;
6127;SDS011;7073;42.672;23.256;2022-10-16T14:45:22;6.53;;;4.30;;
6127;SDS011;7073;42.672;23.256;2022-10-16T14:47:51;4.60;;;3.53;;
6127;SDS011;7073;42.672;23.256;2022-10-16T14:50:20;5.03;;;3.37;;
6127;SDS011;7073;42.672;23.256;2022-10-16T14:52:48;3.77;;;3.47;;
6127;SDS011;7073;42.672;23.256;2022-10-16T14:55:15;6.83;;;3.67;;
6127;SDS011;7073;42.672;23.256;2022-10-16T14:57:43;4.40;;;4.00;;
6127;SDS011;7073;42.672;23.256;2022-10-16T15:00:17;3.73;;;3.33;;
6127;SDS011;7073;42.672;23.256;2022-10-16T15:02:47;8.30;;;3.57;;
6127;SDS011;7073;42.672;23.256;2022-10-16T15:05:16;6.53;;;3.63;;
6127;SDS011;7073;42.672;23.256;2022-10-16T15:07:45;5.83;;;3.40;;
6127;SDS011;7073;42.672;23.256;2022-10-16T15:10:14;5.90;;;3.47;;
6127;SDS011;7073;42.672;23.256;2022-10-16T15:12:41;4.33;;;3.77;;
6127;SDS011;7073;42.672;23.256;2022-10-16T15:15:23;5.27;;;3.63;;
6127;SDS011;7073;42.672;23.256;2022-10-16T15:17:55;9.27;;;7.50;;
6127;SDS011;7073;42.672;23.256;2022-10-16T15:20:22;8.67;;;5.23;;
6127;SDS011;7073;42.672;23.256;2022-10-16T15:22:50;4.67;;;3.57;;
6127;SDS011;7073;42.672;23.256;2022-10-16T15:25:24;5.90;;;3.70;;
6127;SDS011;7073;42.672;23.256;2022-10-16T15:27:56;10.70;;;4.77;;
6127;SDS011;7073;42.672;23.256;2022-10-16T15:30:23;10.00;;;3.90;;
6127;SDS011;7073;42.672;23.256;2022-10-16T15:32:50;6.20;;;3.70;;
6127;SDS011;7073;42.672;23.256;2022-10-16T15:35:17;8.17;;;4.20;;
6127;SDS011;7073;42.672;23.256;2022-10-16T15:37:44;8.77;;;3.80;;
6127;SDS011;7073;42.672;23.256;2022-10-16T15:40:12;4.80;;;3.60;;
6127;SDS011;7073;42.672;23.256;2022-10-16T15:42:40;6.73;;;3.70;;
6127;SDS011;7073;42.672;23.256;2022-10-16T15:45:08;5.97;;;3.37;;
6127;SDS011;7073;42.672;23.256;2022-10-16T15:47:35;10.53;;;4.10;;
6127;SDS011;7073;42.672;23.256;2022-10-16T15:50:02;5.23;;;3.80;;